Time;durP1;ratioP1;P1;durP2;ratioP2;P2;SDS_P1;SDS_P2;PMS_P1;PMS_P2;Temp;Humidity;BMP_temperature;BMP_pressure;BME280_temperature;BME280_humidity;BME280_pressure;Samples;Min_cycle;Max_cycle;Signal;HPM_P1;HPM_P2
2022/08/15 00:00:31;;;;;;;12.82;12.23;;;;;;;22.19;100.00;99968.34;5048290;28;20029;-69
2022/08/15 00:02:57;;;;;;;11.73;11.23;;;;;;;22.32;100.00;99958.91;5050580;28;20025;-69
2022/08/15 00:05:24;;;;;;;12.55;11.95;;;;;;;22.18;100.00;99939.69;5049432;28;20035;-70
2022/08/15 00:07:50;;;;;;;12.43;11.82;;;;;;;22.13;100.00;99936.16;5065556;28;20032;-71
2022/08/15 00:10:17;;;;;;;12.40;11.80;;;;;;;22.23;100.00;99931.59;5049648;28;20032;-70
2022/08/15 00:12:43;;;;;;;12.60;12.00;;;;;;;22.31;100.00;99928.34;5065590;28;20112;-70
2022/08/15 00:15:14;;;;;;;12.32;11.73;;;;;;;22.27;100.00;99919.19;5049330;28;20112;-70
2022/08/15 00:17:41;;;;;;;12.95;12.35;;;;;;;22.17;100.00;99902.91;5049529;28;20430;-69
2022/08/15 00:20:10;;;;;;;12.20;11.60;;;;;;;22.10;100.00;99904.25;5048948;28;20028;-70
2022/08/15 00:22:43;;;;;;;12.30;11.70;;;;;;;22.17;100.00;99915.63;5048146;28;20675;-70
2022/08/15 00:25:10;;;;;;;12.00;11.40;;;;;;;22.25;100.00;99912.41;5049315;28;20496;-70
2022/08/15 00:27:35;;;;;;;12.30;11.70;;;;;;;22.23;100.00;99903.75;5050613;28;20487;-70
2022/08/15 00:30:03;;;;;;;12.50;11.90;;;;;;;22.21;100.00;99901.31;5050346;28;20027;-69
2022/08/15 00:32:31;;;;;;;12.50;11.90;;;;;;;22.11;100.00;99905.88;5050726;28;20119;-69
2022/08/15 00:34:56;;;;;;;12.35;11.75;;;;;;;22.18;100.00;99907.28;5050210;28;20052;-70
2022/08/15 00:37:22;;;;;;;12.40;11.80;;;;;;;22.01;100.00;99903.94;5048789;28;20052;-70
2022/08/15 00:39:47;;;;;;;12.70;12.10;;;;;;;21.95;100.00;99910.38;5049373;28;20017;-71
2022/08/15 00:42:13;;;;;;;12.13;11.52;;;;;;;21.45;100.00;99909.09;5048098;28;20500;-70
2022/08/15 00:44:44;;;;;;;12.40;11.80;;;;;;;21.69;100.00;99929.19;5050261;28;20110;-70
2022/08/15 00:47:28;;;;;;;12.30;11.70;;;;;;;21.79;100.00;99917.63;5050038;28;20028;-70
2022/08/15 00:49:53;;;;;;;12.25;11.65;;;;;;;21.96;100.00;99920.94;5049225;28;20033;-70
2022/08/15 00:52:27;;;;;;;11.98;11.48;;;;;;;22.09;100.00;99921.53;5042877;28;20060;-71
2022/08/15 00:54:57;;;;;;;12.17;11.57;;;;;;;22.03;100.00;99926.91;5050445;28;20017;-70
2022/08/15 00:57:33;;;;;;;12.35;11.75;;;;;;;22.27;100.00;99921.88;5050686;28;20021;-70
2022/08/15 01:00:12;;;;;;;12.48;11.88;;;;;;;22.43;100.00;99914.63;5052179;28;20055;-71
2022/08/15 01:02:38;;;;;;;12.10;11.50;;;;;;;22.40;100.00;99908.91;5052995;28;20049;-70
2022/08/15 01:05:12;;;;;;;11.80;11.30;;;;;;;22.15;100.00;99913.19;5052117;28;20077;-70
2022/08/15 01:07:38;;;;;;;12.45;11.85;;;;;;;22.12;100.00;99908.34;5053170;28;20036;-70
2022/08/15 01:10:06;;;;;;;12.32;11.73;;;;;;;22.12;100.00;99918.31;5053458;28;20447;-70
2022/08/15 01:12:32;;;;;;;12.40;11.80;;;;;;;22.17;100.00;99916.44;5053927;28;20059;-68
2022/08/15 01:15:02;;;;;;;11.98;11.38;;;;;;;22.40;100.00;99914.31;5053830;28;20420;-69
2022/08/15 01:17:30;;;;;;;12.65;12.05;;;;;;;22.37;100.00;99915.69;5069076;28;20017;-70
2022/08/15 01:20:06;;;;;;;12.35;11.75;;;;;;;22.17;100.00;99927.25;5050380;28;20124;-70
2022/08/15 01:23:12;;;;;;;12.15;11.55;;;;;;;22.33;100.00;99931.63;5052780;28;20044;-69
2022/08/15 01:25:59;;;;;;;12.50;11.90;;;;;;;22.27;100.00;99927.28;5032178;28;20033;-71
2022/08/15 01:28:30;;;;;;;12.50;11.90;;;;;;;22.41;100.00;99921.38;5051398;28;20068;-69
2022/08/15 01:31:17;;;;;;;12.50;11.90;;;;;;;22.55;100.00;99922.47;5050544;28;20071;-70
2022/08/15 01:33:46;;;;;;;12.30;11.70;;;;;;;22.50;100.00;99919.75;5053343;28;20060;-70
2022/08/15 01:36:12;;;;;;;12.10;11.52;;;;;;;22.29;100.00;99908.09;5068375;28;20275;-70
2022/08/15 01:38:47;;;;;;;12.10;11.50;;;;;;;22.38;100.00;99920.00;5050444;28;20025;-70
2022/08/15 01:41:21;;;;;;;12.10;11.50;;;;;;;22.32;100.00;99918.34;5050827;28;20558;-70
2022/08/15 01:44:01;;;;;;;12.45;11.85;;;;;;;22.39;100.00;99912.69;5052990;28;20060;-71
2022/08/15 01:46:32;;;;;;;12.38;11.77;;;;;;;22.33;100.00;99914.59;5048761;28;20021;-70
2022/08/15 01:49:05;;;;;;;11.95;11.40;;;;;;;22.31;100.00;99916.75;5052775;28;20468;-70
2022/08/15 01:51:30;;;;;;;12.50;11.90;;;;;;;22.16;100.00;99914.00;5052939;28;20025;-71
2022/08/15 01:54:04;;;;;;;12.52;11.93;;;;;;;22.14;100.00;99908.88;5052979;28;20063;-71
2022/08/15 01:56:33;;;;;;;12.52;11.93;;;;;;;22.17;100.00;99918.31;5051659;28;20029;-71
2022/08/15 01:59:02;;;;;;;12.43;11.82;;;;;;;22.12;100.00;99919.13;5052005;28;20028;-70
2022/08/15 02:01:43;;;;;;;12.32;11.73;;;;;;;22.32;100.00;99923.75;5053016;28;20031;-70
2022/08/15 02:04:10;;;;;;;12.15;11.55;;;;;;;22.26;100.00;99909.44;5052677;28;20021;-69
2022/08/15 02:06:35;;;;;;;12.43;11.82;;;;;;;22.23;100.00;99914.56;5052540;28;20091;-70
2022/08/15 02:09:02;;;;;;;12.45;11.85;;;;;;;21.99;100.00;99919.59;5050030;28;20025;-69
2022/08/15 02:11:29;;;;;;;12.10;11.50;;;;;;;22.01;100.00;99912.03;5051675;28;20435;-69
2022/08/15 02:13:56;;;;;;;12.35;11.75;;;;;;;22.07;100.00;99925.28;5032846;28;20047;-69
2022/08/15 02:16:26;;;;;;;12.13;11.52;;;;;;;22.05;100.00;99911.25;5046811;28;20021;-70
2022/08/15 02:18:52;;;;;;;12.45;11.85;;;;;;;22.25;100.00;99918.59;5050242;28;20021;-70
2022/08/15 02:21:18;;;;;;;12.45;11.85;;;;;;;22.09;100.00;99919.66;5050252;28;20032;-71
2022/08/15 02:23:44;;;;;;;12.60;12.00;;;;;;;22.16;100.00;99922.09;5051223;28;20036;-70
2022/08/15 02:26:10;;;;;;;12.27;11.68;;;;;;;22.30;100.00;99918.63;5052622;28;20090;-70
2022/08/15 02:28:38;;;;;;;12.32;11.73;;;;;;;22.19;100.00;99908.91;5049939;28;20535;-70
2022/08/15 02:31:17;;;;;;;12.30;11.70;;;;;;;22.26;100.00;99908.66;5050986;28;20086;-70
2022/08/15 02:34:00;;;;;;;12.43;11.82;;;;;;;22.01;100.00;99901.22;5051628;28;20178;-70
2022/08/15 02:36:27;;;;;;;11.80;11.25;;;;;;;22.10;100.00;99896.97;5050991;28;20037;-70
2022/08/15 02:38:54;;;;;;;12.52;11.93;;;;;;;21.89;100.00;99892.56;5066417;28;20492;-71
2022/08/15 02:41:28;;;;;;;12.25;11.65;;;;;;;21.97;100.00;99900.97;5051360;28;20044;-70
2022/08/15 02:43:53;;;;;;;12.48;11.88;;;;;;;21.93;100.00;99899.03;5049479;28;20129;-70
2022/08/15 02:46:20;;;;;;;12.40;11.80;;;;;;;21.57;100.00;99898.88;5049615;28;20465;-69
2022/08/15 02:48:48;;;;;;;12.45;11.85;;;;;;;21.23;100.00;99909.19;5051963;28;20025;-69
2022/08/15 02:51:16;;;;;;;11.75;11.25;;;;;;;21.01;100.00;99900.41;5051207;28;20032;-70
2022/08/15 02:53:48;;;;;;;12.15;11.55;;;;;;;20.82;100.00;99916.16;5049853;28;20107;-69
2022/08/15 02:56:16;;;;;;;11.68;11.18;;;;;;;20.72;100.00;99916.91;5046552;28;20029;-70
2022/08/15 02:58:41;;;;;;;11.95;11.43;;;;;;;20.82;100.00;99916.16;5051660;28;20127;-70
2022/08/15 03:01:09;;;;;;;12.60;12.00;;;;;;;20.82;100.00;99905.38;5050682;28;20025;-70
2022/08/15 03:03:40;;;;;;;12.10;11.50;;;;;;;20.73;100.00;99901.53;5049874;28;20561;-70
2022/08/15 03:06:10;;;;;;;12.00;11.48;;;;;;;20.66;100.00;99902.56;5051153;28;20103;-70
2022/08/15 03:08:40;;;;;;;12.15;11.55;;;;;;;20.64;100.00;99895.81;5051421;28;20017;-69
2022/08/15 03:11:09;;;;;;;11.80;11.30;;;;;;;20.64;100.00;99893.91;5051379;28;20111;-69
2022/08/15 03:13:35;;;;;;;12.10;11.50;;;;;;;20.67;100.00;99890.69;5050225;28;20052;-70
2022/08/15 03:16:03;;;;;;;11.93;11.43;;;;;;;20.80;100.00;99888.66;5051548;28;20598;-70
2022/08/15 03:18:32;;;;;;;12.23;11.63;;;;;;;20.67;100.00;99893.41;5051524;28;20099;-70
2022/08/15 03:21:00;;;;;;;11.70;11.20;;;;;;;20.64;100.00;99895.81;5050751;28;20380;-69
2022/08/15 03:23:29;;;;;;;12.27;11.68;;;;;;;20.76;100.00;99893.72;5051305;28;20024;-70
2022/08/15 03:25:59;;;;;;;12.30;11.70;;;;;;;20.79;100.00;99909.41;5051247;28;20500;-70
2022/08/15 03:28:28;;;;;;;12.43;11.82;;;;;;;20.72;100.00;99891.81;5051127;28;20029;-70
2022/08/15 03:30:55;;;;;;;12.32;11.73;;;;;;;20.73;100.00;99894.25;5049984;28;20028;-70
2022/08/15 03:33:20;;;;;;;12.10;11.50;;;;;;;20.69;100.00;99904.72;5066616;28;20028;-70
2022/08/15 03:35:48;;;;;;;12.23;11.63;;;;;;;20.91;100.00;99910.03;5050307;28;20036;-70
2022/08/15 03:38:15;;;;;;;12.20;11.60;;;;;;;20.56;100.00;99915.91;5043131;28;20396;-70
2022/08/15 03:40:43;;;;;;;12.40;11.80;;;;;;;20.69;100.00;99923.59;5046772;28;20480;-69
2022/08/15 03:43:16;;;;;;;12.50;11.90;;;;;;;20.78;100.00;99925.81;5050939;28;20400;-70
2022/08/15 03:45:50;;;;;;;11.85;11.27;;;;;;;20.76;100.00;99927.97;5050602;28;20088;-71
2022/08/15 03:48:18;;;;;;;12.25;11.65;;;;;;;20.89;100.00;99924.84;5049308;28;20060;-70
2022/08/15 03:50:44;;;;;;;11.95;11.43;;;;;;;20.89;100.00;99927.53;5049630;28;20025;-70
2022/08/15 03:53:10;;;;;;;12.35;11.75;;;;;;;20.83;100.00;99926.69;5051053;28;20029;-70
2022/08/15 03:55:37;;;;;;;12.60;12.00;;;;;;;20.82;100.00;99935.03;5053050;28;20028;-70
2022/08/15 03:58:03;;;;;;;12.32;11.73;;;;;;;20.94;100.00;99924.91;5050654;28;20102;-70
2022/08/15 04:00:34;;;;;;;12.20;11.60;;;;;;;21.09;100.00;99927.72;5049351;28;20036;-70
2022/08/15 04:03:10;;;;;;;11.90;11.30;;;;;;;20.88;100.00;99931.31;5065499;28;20527;-70
2022/08/15 04:05:36;;;;;;;12.30;11.70;;;;;;;20.95;100.00;99938.13;5049014;28;20025;-72
2022/08/15 04:08:05;;;;;;;12.57;11.98;;;;;;;21.10;100.00;99933.91;5048584;28;20036;-70
2022/08/15 04:10:31;;;;;;;12.95;12.32;;;;;;;21.10;100.00;99940.13;5048544;28;20611;-70
2022/08/15 04:12:57;;;;;;;12.60;12.00;;;;;;;21.24;100.00;99940.50;5047041;28;20454;-71
2022/08/15 04:15:23;;;;;;;12.95;12.35;;;;;;;21.23;100.00;99941.56;5048157;28;20074;-69
2022/08/15 04:17:51;;;;;;;12.23;11.63;;;;;;;21.03;100.00;99936.03;5050539;28;20025;-70
2022/08/15 04:20:17;;;;;;;12.48;11.88;;;;;;;21.05;100.00;99937.38;5048222;28;20025;-69
2022/08/15 04:22:47;;;;;;;12.40;11.80;;;;;;;21.22;100.00;99937.22;5050319;28;20488;-69
2022/08/15 04:25:14;;;;;;;12.50;11.90;;;;;;;21.11;100.00;99932.84;5050348;28;20393;-71
2022/08/15 04:27:40;;;;;;;11.80;11.30;;;;;;;22.06;100.00;99933.66;5048139;28;20038;-70
2022/08/15 04:30:08;;;;;;;12.50;11.90;;;;;;;23.98;100.00;99912.28;5049391;28;20036;-71
2022/08/15 04:32:34;;;;;;;12.07;11.48;;;;;;;27.12;100.00;99876.50;5049577;28;20525;-70
2022/08/15 04:35:00;;;;;;;11.90;11.40;;;;;;;28.09;100.00;99871.84;5054171;28;20143;-71
2022/08/15 04:37:28;;;;;;;12.30;11.70;;;;;;;28.13;100.00;99863.84;5051511;28;20035;-70
2022/08/15 04:39:55;;;;;;;12.43;11.82;;;;;;;25.92;100.00;99846.25;5052100;28;20032;-70
2022/08/15 04:42:21;;;;;;;11.98;11.40;;;;;;;28.53;100.00;99843.81;5052532;28;20028;-70
2022/08/15 04:44:48;;;;;;;12.00;11.50;;;;;;;29.68;100.00;99839.41;5051786;28;20053;-70
2022/08/15 04:47:15;;;;;;;11.85;11.35;;;;;;;29.52;100.00;99833.56;5053620;28;20045;-70
2022/08/15 04:49:42;;;;;;;11.60;11.10;;;;;;;30.45;100.00;99837.84;5054044;28;20511;-70
2022/08/15 04:52:19;;;;;;;12.00;11.50;;;;;;;30.11;100.00;99827.72;5054073;28;20472;-70
2022/08/15 04:54:45;;;;;;;11.55;11.05;;;;;;;29.98;100.00;99834.94;5049739;28;20459;-70
2022/08/15 04:57:12;;;;;;;11.52;11.02;;;;;;;28.98;100.00;99824.69;5053810;28;20086;-70
2022/08/15 04:59:39;;;;;;;11.90;11.40;;;;;;;28.42;100.00;99822.53;5053622;28;20021;-70
2022/08/15 05:02:08;;;;;;;12.30;11.70;;;;;;;27.87;100.00;99828.97;5052655;28;20103;-70
2022/08/15 05:04:34;;;;;;;12.05;11.50;;;;;;;26.65;100.00;99829.38;5053611;28;20112;-70
2022/08/15 05:07:00;;;;;;;11.77;11.27;;;;;;;26.10;100.00;99837.31;5051220;28;20033;-71
2022/08/15 05:09:25;;;;;;;12.15;11.55;;;;;;;25.44;100.00;99840.88;5052143;28;20032;-69
2022/08/15 05:11:51;;;;;;;12.05;11.50;;;;;;;25.41;100.00;99840.63;5052305;28;20025;-71
2022/08/15 05:14:17;;;;;;;11.93;11.43;;;;;;;25.32;100.00;99835.84;5052861;28;20178;-70
2022/08/15 05:16:43;;;;;;;12.15;11.55;;;;;;;25.00;100.00;99839.16;5054466;28;20029;-70
2022/08/15 05:19:08;;;;;;;12.20;11.60;;;;;;;24.80;100.00;99845.59;5052453;28;20023;-70
2022/08/15 05:21:34;;;;;;;12.30;11.70;;;;;;;24.76;100.00;99851.88;5052863;28;20043;-70
2022/08/15 05:23:59;;;;;;;12.55;11.95;;;;;;;24.83;100.00;99838.78;5053256;28;20103;-70
2022/08/15 05:26:25;;;;;;;12.55;11.95;;;;;;;24.51;100.00;99842.84;5053286;28;20032;-71
2022/08/15 05:28:50;;;;;;;12.48;11.88;;;;;;;23.84;100.00;99844.34;5053405;28;20472;-70
2022/08/15 05:31:16;;;;;;;12.50;11.90;;;;;;;24.34;100.00;99837.03;5056536;28;20044;-71
2022/08/15 05:33:44;;;;;;;11.85;11.35;;;;;;;24.65;100.00;99831.34;5052628;28;20025;-70
2022/08/15 05:36:11;;;;;;;12.63;12.02;;;;;;;24.42;100.00;99825.56;5052273;28;20039;-70
2022/08/15 05:38:46;;;;;;;12.65;12.05;;;;;;;24.88;100.00;99821.66;5052843;28;20102;-70
2022/08/15 05:41:33;;;;;;;12.93;12.32;;;;;;;24.92;100.00;99823.50;5051518;28;20035;-71
2022/08/15 05:44:43;;;;;;;12.73;12.13;;;;;;;25.31;100.00;99825.28;5050938;28;20041;-70
2022/08/15 05:47:19;;;;;;;12.25;11.65;;;;;;;25.73;100.00;99824.53;5047578;28;20595;-70
2022/08/15 05:49:58;;;;;;;12.85;12.25;;;;;;;26.10;100.00;99821.00;5050151;28;20090;-71
2022/08/15 05:52:33;;;;;;;12.75;12.15;;;;;;;25.66;100.00;99821.31;5050176;28;20116;-66
2022/08/15 05:55:19;;;;;;;12.63;12.02;;;;;;;25.75;100.00;99824.22;5052200;28;20541;-68
2022/08/15 05:58:18;;;;;;;12.88;12.27;;;;;;;25.44;100.00;99821.88;5052391;28;20068;-67
2022/08/15 06:01:01;;;;;;;12.75;12.15;;;;;;;25.12;100.00;99811.66;5051462;28;20029;-68
2022/08/15 06:03:28;;;;;;;12.40;11.80;;;;;;;25.40;100.00;99818.09;5051025;28;20029;-66
2022/08/15 06:05:57;;;;;;;12.63;12.02;;;;;;;24.95;100.00;99824.81;5052490;28;20020;-67
2022/08/15 06:08:35;;;;;;;12.48;11.88;;;;;;;24.67;100.00;99831.88;5052196;28;20025;-68
2022/08/15 06:11:09;;;;;;;12.48;11.88;;;;;;;24.94;100.00;99826.72;5046118;28;20037;-67
2022/08/15 06:14:03;;;;;;;12.50;11.90;;;;;;;24.60;100.00;99836.81;5051783;28;20048;-62
2022/08/15 06:16:37;;;;;;;12.75;12.15;;;;;;;24.77;100.00;99838.03;5046077;28;20028;-65
2022/08/15 06:19:06;;;;;;;12.30;11.70;;;;;;;24.69;100.00;99840.56;5047478;28;20491;-65
2022/08/15 06:21:48;;;;;;;12.73;12.13;;;;;;;24.50;100.00;99848.56;5045276;28;20039;-64
2022/08/15 06:24:35;;;;;;;12.63;12.02;;;;;;;24.42;100.00;99841.84;5047745;28;20112;-65
2022/08/15 06:27:18;;;;;;;12.30;11.70;;;;;;;24.73;100.00;99831.53;5043527;28;20017;-65
2022/08/15 06:30:06;;;;;;;12.00;11.43;;;;;;;24.73;100.00;99836.16;5048541;28;20025;-66
2022/08/15 06:32:41;;;;;;;12.60;12.00;;;;;;;24.92;100.00;99837.06;5048303;28;20029;-65
2022/08/15 06:35:25;;;;;;;12.75;12.15;;;;;;;25.17;100.00;99835.22;5048331;28;20033;-65
2022/08/15 06:38:02;;;;;;;12.10;11.50;;;;;;;25.04;100.00;99834.78;5049131;28;20108;-66
2022/08/15 06:40:33;;;;;;;12.77;12.18;;;;;;;25.43;100.00;99844.69;5048924;28;20033;-65
2022/08/15 06:42:59;;;;;;;12.68;12.07;;;;;;;25.72;100.00;99841.13;5050315;28;20044;-71
2022/08/15 06:45:33;;;;;;;12.63;12.02;;;;;;;25.30;100.00;99838.06;5049156;28;20029;-65
2022/08/15 06:48:08;;;;;;;11.90;11.40;;;;;;;24.72;100.00;99843.50;5063845;28;20033;-65
2022/08/15 06:50:42;;;;;;;13.13;12.50;;;;;;;25.39;100.00;99838.22;5049592;28;20215;-65
2022/08/15 06:53:29;;;;;;;12.25;11.65;;;;;;;25.39;100.00;99835.50;5047425;28;20026;-66
2022/08/15 06:56:02;;;;;;;12.40;11.80;;;;;;;25.51;100.00;99846.78;5048129;28;20043;-64
2022/08/15 06:58:49;;;;;;;12.75;12.15;;;;;;;26.12;100.00;99847.91;5044675;28;20531;-65
2022/08/15 07:01:41;;;;;;;12.20;11.63;;;;;;;26.12;100.00;99847.91;5049503;28;20039;-64
2022/08/15 07:04:19;;;;;;;12.10;11.50;;;;;;;26.55;100.00;99848.63;5049704;28;20021;-64
2022/08/15 07:07:10;;;;;;;12.18;11.57;;;;;;;26.31;100.00;99842.47;5045055;28;20091;-65
2022/08/15 07:10:01;;;;;;;12.20;11.60;;;;;;;26.52;100.00;99843.78;5049360;28;20040;-64
2022/08/15 07:12:40;;;;;;;12.10;11.50;;;;;;;27.35;100.00;99838.50;5049510;28;20086;-67
2022/08/15 07:15:44;;;;;;;12.63;12.02;;;;;;;27.39;100.00;99840.31;5021311;28;20431;-67
2022/08/15 07:18:34;;;;;;;12.52;11.93;;;;;;;27.26;100.00;99839.22;5038149;28;20041;-67
2022/08/15 07:21:21;;;;;;;13.02;12.43;;;;;;;26.51;100.00;99831.25;5051254;28;20027;-65
2022/08/15 07:24:02;;;;;;;12.50;11.90;;;;;;;26.39;100.00;99841.81;5043335;28;20458;-65
2022/08/15 07:26:30;;;;;;;12.40;11.80;;;;;;;26.86;100.00;99839.94;5050875;28;20377;-66
2022/08/15 07:29:00;;;;;;;12.82;12.23;;;;;;;28.09;100.00;99842.66;5064339;28;20029;-64
2022/08/15 07:31:34;;;;;;;12.25;11.65;;;;;;;27.96;100.00;99848.13;5050824;28;20504;-66
2022/08/15 07:34:24;;;;;;;12.35;11.75;;;;;;;28.23;100.00;99848.06;5050609;28;20041;-66
2022/08/15 07:37:02;;;;;;;12.30;11.70;;;;;;;28.50;100.00;99843.66;5050888;28;20508;-66
2022/08/15 07:39:29;;;;;;;12.75;12.15;;;;;;;28.21;100.00;99842.13;5056612;28;20491;-66
2022/08/15 07:41:55;;;;;;;12.27;11.68;;;;;;;28.70;100.00;99836.84;5052609;28;20055;-68
2022/08/15 07:44:30;;;;;;;12.35;11.75;;;;;;;28.97;100.00;99833.19;5049343;28;20580;-66
2022/08/15 07:46:59;;;;;;;11.95;11.43;;;;;;;28.43;100.00;99832.38;5049366;28;20032;-65
2022/08/15 07:49:34;;;;;;;12.15;11.55;;;;;;;28.83;100.00;99822.31;5047526;28;20451;-66
2022/08/15 07:52:24;;;;;;;12.40;11.80;;;;;;;28.90;100.00;99811.75;5050750;28;20029;-66
2022/08/15 07:54:53;;;;;;;12.90;12.30;;;;;;;29.08;100.00;99820.84;5040921;28;20051;-64
2022/08/15 07:57:21;;;;;;;12.60;12.00;;;;;;;28.95;100.00;99821.78;5046865;28;20488;-66
2022/08/15 08:00:16;;;;;;;12.27;11.68;;;;;;;28.55;100.00;99813.50;5050668;28;20032;-66
2022/08/15 08:03:00;;;;;;;11.82;11.32;;;;;;;28.12;100.00;99819.41;5044584;28;20075;-67
2022/08/15 08:05:33;;;;;;;11.77;11.27;;;;;;;28.14;100.00;99819.91;5050697;28;20566;-65
2022/08/15 08:08:04;;;;;;;12.38;11.77;;;;;;;27.76;100.00;99817.50;5054916;28;20037;-65
2022/08/15 08:10:32;;;;;;;11.75;11.25;;;;;;;27.77;100.00;99813.66;5053513;28;20047;-67
2022/08/15 08:13:13;;;;;;;12.10;11.52;;;;;;;27.79;100.00;99811.44;5053794;28;20033;-64
2022/08/15 08:15:56;;;;;;;12.50;11.90;;;;;;;28.11;100.00;99809.63;5053027;28;20032;-66
2022/08/15 08:18:55;;;;;;;11.73;11.23;;;;;;;28.76;100.00;99806.38;5053578;28;20104;-65
2022/08/15 08:21:27;;;;;;;12.73;12.13;;;;;;;28.83;100.00;99804.03;5054425;28;20036;-66
2022/08/15 08:23:59;;;;;;;13.23;12.57;;;;;;;28.42;100.00;99796.06;5053490;28;20044;-65
2022/08/15 08:26:24;;;;;;;12.55;11.95;;;;;;;28.45;100.00;99795.47;5052770;28;20442;-65
2022/08/15 08:29:34;;;;;;;12.45;11.85;;;;;;;28.17;100.00;99789.28;5054121;28;20064;-66
2022/08/15 08:32:18;;;;;;;12.98;12.38;;;;;;;28.80;100.00;99785.56;5045203;28;20107;-64
2022/08/15 08:34:53;;;;;;;12.45;11.85;;;;;;;27.95;100.00;99792.81;5054233;28;20094;-66
2022/08/15 08:37:51;;;;;;;12.40;11.80;;;;;;;28.41;100.00;99789.00;5053857;28;20020;-66
2022/08/15 08:43:14;;;;;;;12.05;11.48;;;;;;;28.78;100.00;99784.22;5053762;28;20059;-65
2022/08/15 08:45:47;;;;;;;12.48;11.88;;;;;;;28.69;100.00;99777.94;5053016;28;20049;-66
2022/08/15 08:48:37;;;;;;;12.73;12.13;;;;;;;29.24;100.00;99772.09;5053009;28;20536;-66
2022/08/15 08:51:31;;;;;;;12.73;12.13;;;;;;;29.15;100.00;99777.50;5052861;28;20098;-65
2022/08/15 08:54:22;;;;;;;12.23;11.63;;;;;;;29.00;100.00;99764.28;5051966;28;20033;-66
2022/08/15 08:56:53;;;;;;;12.70;12.10;;;;;;;29.71;100.00;99773.97;5052316;28;20028;-66
2022/08/15 08:59:34;;;;;;;12.40;11.80;;;;;;;29.93;100.00;99778.47;5053394;28;20033;-66
2022/08/15 09:02:09;;;;;;;12.05;11.52;;;;;;;29.00;100.00;99775.19;5041970;28;20513;-66
2022/08/15 09:04:46;;;;;;;12.02;11.50;;;;;;;29.60;100.00;99778.16;5053712;28;20064;-66
2022/08/15 09:07:19;;;;;;;12.35;11.75;;;;;;;29.25;100.00;99782.69;5053732;28;20024;-66
2022/08/15 09:09:47;;;;;;;12.40;11.80;;;;;;;29.56;100.00;99781.81;5053327;28;20060;-65
2022/08/15 09:15:13;;;;;;;12.15;11.55;;;;;;;28.70;100.00;99768.63;5053829;28;20039;-66
2022/08/15 09:17:42;;;;;;;12.70;12.10;;;;;;;28.45;100.00;99765.44;5052228;28;20044;-66
2022/08/15 09:20:12;;;;;;;12.10;11.52;;;;;;;28.88;100.00;99773.88;5053696;28;20025;-66
2022/08/15 09:22:39;;;;;;;12.80;12.20;;;;;;;29.14;100.00;99773.97;5053386;28;20012;-66
2022/08/15 09:25:06;;;;;;;11.98;11.40;;;;;;;28.60;100.00;99769.69;5068863;28;20582;-66
2022/08/15 09:27:48;;;;;;;12.05;11.50;;;;;;;29.76;100.00;99773.00;5053326;28;20051;-66
2022/08/15 09:30:15;;;;;;;12.90;12.30;;;;;;;29.72;100.00;99769.28;5053515;28;20100;-65
2022/08/15 09:33:25;;;;;;;12.38;11.77;;;;;;;29.78;100.00;99781.69;5052891;28;20032;-66
2022/08/15 09:35:53;;;;;;;12.20;11.60;;;;;;;30.37;100.00;99782.00;5030380;28;20572;-65
2022/08/15 09:38:33;;;;;;;11.48;10.98;;;;;;;30.45;100.00;99774.91;5030770;28;20026;-66
2022/08/15 09:41:21;;;;;;;11.93;11.43;;;;;;;30.46;100.00;99784.72;5044772;28;20033;-65
2022/08/15 09:44:09;;;;;;;11.63;11.13;;;;;;;29.99;100.00;99781.84;5051358;28;20211;-66
2022/08/15 09:47:13;;;;;;;12.52;11.93;;;;;;;30.41;100.00;99784.91;5048153;28;20017;-66
2022/08/15 09:50:00;;;;;;;12.27;11.68;;;;;;;30.62;100.00;99782.25;4990979;28;20030;-67
2022/08/15 09:52:59;;;;;;;12.60;12.00;;;;;;;30.14;100.00;99789.59;5049951;28;20059;-66
2022/08/15 09:55:36;;;;;;;12.00;11.50;;;;;;;30.66;100.00;99775.84;5052731;28;20147;-66
2022/08/15 09:58:17;;;;;;;11.70;11.20;;;;;;;30.63;100.00;99779.22;5052798;28;20096;-66
2022/08/15 10:00:58;;;;;;;11.82;11.32;;;;;;;30.92;100.00;99777.69;5044664;28;20019;-66
2022/08/15 10:03:46;;;;;;;12.20;11.60;;;;;;;31.44;100.00;99777.47;5051129;28;20425;-66
2022/08/15 10:06:15;;;;;;;11.88;11.38;;;;;;;31.85;100.00;99785.72;5041795;28;20043;-66
2022/08/15 10:08:53;;;;;;;11.55;11.05;;;;;;;31.48;100.00;99790.16;5052404;28;20418;-66
2022/08/15 10:11:28;;;;;;;12.13;11.57;;;;;;;31.31;100.00;99784.78;5052434;28;20490;-66
2022/08/15 10:14:05;;;;;;;12.10;11.57;;;;;;;31.35;100.00;99781.03;5052336;28;20029;-66
2022/08/15 10:16:36;;;;;;;12.73;12.13;;;;;;;31.54;100.00;99783.34;5052466;28;20044;-66
2022/08/15 10:19:02;;;;;;;12.23;11.63;;;;;;;31.38;100.00;99781.53;5052304;28;20057;-66
2022/08/15 10:21:35;;;;;;;12.18;11.57;;;;;;;31.59;100.00;99776.88;5052529;28;20057;-67
2022/08/15 10:24:03;;;;;;;11.70;11.20;;;;;;;31.33;100.00;99777.81;5052287;28;20029;-67
2022/08/15 10:26:36;;;;;;;12.45;11.85;;;;;;;31.31;100.00;99777.38;5051995;28;20039;-66
2022/08/15 10:29:25;;;;;;;12.25;11.65;;;;;;;31.93;100.00;99789.53;5052081;28;20086;-66
2022/08/15 10:31:55;;;;;;;12.02;11.52;;;;;;;32.03;100.00;99788.34;5044103;28;20040;-66
2022/08/15 10:34:51;;;;;;;11.90;11.40;;;;;;;30.81;100.00;99785.47;5052141;28;20029;-66
2022/08/15 10:37:25;;;;;;;11.80;11.30;;;;;;;31.35;100.00;99785.72;5052135;28;20527;-66
2022/08/15 10:40:23;;;;;;;12.40;11.80;;;;;;;31.80;100.00;99788.69;5052137;28;20037;-65
2022/08/15 10:43:18;;;;;;;11.88;11.38;;;;;;;31.46;100.00;99794.38;5051650;28;20029;-66
2022/08/15 10:45:49;;;;;;;;;;;;;;;31.49;100.00;99797.25;5047243;28;20068;-66
2022/08/15 10:48:27;;;;;;;12.32;11.73;;;;;;;31.51;100.00;99796.91;5051325;28;19912;-66
2022/08/15 10:51:27;;;;;;;12.60;12.00;;;;;;;31.60;100.00;99800.41;5051982;28;20056;-66
2022/08/15 10:54:30;;;;;;;12.20;11.60;;;;;;;31.66;100.00;99801.81;5051969;28;20021;-66
2022/08/15 10:56:57;;;;;;;12.48;11.88;;;;;;;31.85;100.00;99793.94;5051867;28;20074;-68
2022/08/15 10:59:46;;;;;;;11.70;11.20;;;;;;;31.16;100.00;99790.81;5051392;28;20021;-66
2022/08/15 11:02:20;;;;;;;12.73;12.13;;;;;;;31.51;100.00;99789.50;5049586;28;20029;-66
2022/08/15 11:04:46;;;;;;;11.82;11.32;;;;;;;32.42;100.00;99798.00;5051344;28;20033;-67
2022/08/15 11:07:17;;;;;;;12.35;11.75;;;;;;;31.83;100.00;99795.44;5051691;28;20142;-65
2022/08/15 11:09:57;;;;;;;12.02;11.52;;;;;;;31.85;100.00;99790.41;5051425;28;20082;-68
2022/08/15 11:12:27;;;;;;;12.35;11.75;;;;;;;30.94;100.00;99786.38;5035973;28;20048;-66
2022/08/15 11:15:00;;;;;;;12.48;11.88;;;;;;;31.81;100.00;99797.72;5051388;28;20027;-65
2022/08/15 11:17:30;;;;;;;12.20;11.60;;;;;;;32.01;100.00;99791.41;5050932;28;20451;-66
2022/08/15 11:20:19;;;;;;;11.75;11.25;;;;;;;32.04;100.00;99790.75;5051214;28;20037;-66
2022/08/15 11:22:49;;;;;;;11.70;11.20;;;;;;;31.75;100.00;99799.00;5051424;28;20119;-67
2022/08/15 11:25:19;;;;;;;11.65;11.15;;;;;;;31.22;100.00;99787.56;5049863;28;20777;-67
2022/08/15 11:28:05;;;;;;;11.73;11.23;;;;;;;30.81;100.00;99778.03;5051118;28;20433;-66
2022/08/15 11:30:34;;;;;;;11.75;11.25;;;;;;;30.76;100.00;99780.16;5051354;28;20024;-66
2022/08/15 11:33:42;;;;;;;11.50;11.00;;;;;;;31.21;100.00;99790.59;5051138;28;20123;-66
2022/08/15 11:36:19;;;;;;;11.85;11.35;;;;;;;31.42;100.00;99783.25;5051141;28;20021;-66
2022/08/15 11:38:49;;;;;;;11.38;10.88;;;;;;;30.95;100.00;99785.25;5051232;28;20490;-66
2022/08/15 11:41:36;;;;;;;11.88;11.38;;;;;;;31.46;100.00;99777.94;5049371;28;20170;-66
2022/08/15 11:44:08;;;;;;;11.55;11.05;;;;;;;31.03;100.00;99773.44;5050799;28;20049;-66
2022/08/15 11:46:34;;;;;;;11.52;11.02;;;;;;;31.32;100.00;99778.16;5050952;28;20021;-65